sensor_id;sensor_type;location;lat;lon;timestamp;P1;durP1;ratioP1;P2;durP2;ratioP2
21233;SDS011;10774;42.178;26.578;2022-08-14T00:00:24;11.35;;;9.32;;
21233;SDS011;10774;42.178;26.578;2022-08-14T00:02:49;11.35;;;9.55;;
21233;SDS011;10774;42.178;26.578;2022-08-14T00:05:16;11.18;;;9.85;;
21233;SDS011;10774;42.178;26.578;2022-08-14T00:07:45;12.98;;;9.70;;
21233;SDS011;10774;42.178;26.578;2022-08-14T00:10:12;9.55;;;8.55;;
21233;SDS011;10774;42.178;26.578;2022-08-14T00:12:41;11.55;;;7.85;;
21233;SDS011;10774;42.178;26.578;2022-08-14T00:15:19;10.25;;;8.18;;
21233;SDS011;10774;42.178;26.578;2022-08-14T00:17:52;9.45;;;7.68;;
21233;SDS011;10774;42.178;26.578;2022-08-14T00:20:18;12.52;;;8.65;;
21233;SDS011;10774;42.178;26.578;2022-08-14T00:22:46;9.05;;;7.78;;
21233;SDS011;10774;42.178;26.578;2022-08-14T00:25:11;8.68;;;7.65;;
21233;SDS011;10774;42.178;26.578;2022-08-14T00:27:37;8.88;;;7.97;;
21233;SDS011;10774;42.178;26.578;2022-08-14T00:30:05;8.98;;;7.93;;
21233;SDS011;10774;42.178;26.578;2022-08-14T00:32:32;9.52;;;7.95;;
21233;SDS011;10774;42.178;26.578;2022-08-14T00:34:58;9.00;;;7.60;;
21233;SDS011;10774;42.178;26.578;2022-08-14T00:37:26;10.88;;;8.68;;
21233;SDS011;10774;42.178;26.578;2022-08-14T00:39:52;10.98;;;8.02;;
21233;SDS011;10774;42.178;26.578;2022-08-14T00:42:18;9.70;;;7.95;;
21233;SDS011;10774;42.178;26.578;2022-08-14T00:44:44;11.90;;;8.05;;
21233;SDS011;10774;42.178;26.578;2022-08-14T00:47:09;10.38;;;8.93;;
21233;SDS011;10774;42.178;26.578;2022-08-14T00:49:38;12.88;;;9.82;;
21233;SDS011;10774;42.178;26.578;2022-08-14T00:52:04;10.35;;;9.25;;
21233;SDS011;10774;42.178;26.578;2022-08-14T00:54:30;13.65;;;10.85;;
21233;SDS011;10774;42.178;26.578;2022-08-14T00:56:55;13.13;;;10.82;;
21233;SDS011;10774;42.178;26.578;2022-08-14T00:59:24;12.57;;;10.18;;
21233;SDS011;10774;42.178;26.578;2022-08-14T01:01:53;12.93;;;10.13;;
21233;SDS011;10774;42.178;26.578;2022-08-14T01:04:20;11.82;;;10.30;;
21233;SDS011;10774;42.178;26.578;2022-08-14T01:06:48;11.10;;;9.75;;
21233;SDS011;10774;42.178;26.578;2022-08-14T01:09:16;13.10;;;10.25;;
21233;SDS011;10774;42.178;26.578;2022-08-14T01:11:47;11.20;;;9.88;;
21233;SDS011;10774;42.178;26.578;2022-08-14T01:14:14;13.48;;;10.30;;
21233;SDS011;10774;42.178;26.578;2022-08-14T01:16:40;12.57;;;10.48;;
21233;SDS011;10774;42.178;26.578;2022-08-14T01:19:06;15.05;;;10.93;;
21233;SDS011;10774;42.178;26.578;2022-08-14T01:21:49;12.98;;;10.48;;
21233;SDS011;10774;42.178;26.578;2022-08-14T01:24:15;12.13;;;9.90;;
21233;SDS011;10774;42.178;26.578;2022-08-14T01:26:41;14.80;;;10.38;;
21233;SDS011;10774;42.178;26.578;2022-08-14T01:29:07;12.23;;;9.98;;
21233;SDS011;10774;42.178;26.578;2022-08-14T01:31:34;12.48;;;10.10;;
21233;SDS011;10774;42.178;26.578;2022-08-14T01:34:10;13.43;;;10.35;;
21233;SDS011;10774;42.178;26.578;2022-08-14T01:36:36;14.45;;;10.38;;
21233;SDS011;10774;42.178;26.578;2022-08-14T01:39:23;15.60;;;10.57;;
21233;SDS011;10774;42.178;26.578;2022-08-14T01:41:48;16.40;;;10.10;;
21233;SDS011;10774;42.178;26.578;2022-08-14T01:44:20;14.27;;;10.43;;
21233;SDS011;10774;42.178;26.578;2022-08-14T01:46:49;13.20;;;10.43;;
21233;SDS011;10774;42.178;26.578;2022-08-14T01:49:18;14.05;;;10.32;;
21233;SDS011;10774;42.178;26.578;2022-08-14T01:51:45;11.90;;;10.10;;
21233;SDS011;10774;42.178;26.578;2022-08-14T01:54:13;13.95;;;10.13;;
21233;SDS011;10774;42.178;26.578;2022-08-14T01:56:46;14.30;;;10.30;;
21233;SDS011;10774;42.178;26.578;2022-08-14T02:01:45;14.20;;;10.25;;
21233;SDS011;10774;42.178;26.578;2022-08-14T02:04:13;11.55;;;10.35;;
21233;SDS011;10774;42.178;26.578;2022-08-14T02:06:39;12.13;;;10.70;;
21233;SDS011;10774;42.178;26.578;2022-08-14T02:09:05;13.45;;;10.95;;
21233;SDS011;10774;42.178;26.578;2022-08-14T02:11:32;12.57;;;10.43;;
21233;SDS011;10774;42.178;26.578;2022-08-14T02:14:00;16.13;;;11.00;;
21233;SDS011;10774;42.178;26.578;2022-08-14T02:16:29;12.32;;;10.27;;
21233;SDS011;10774;42.178;26.578;2022-08-14T02:19:00;11.23;;;10.13;;
21233;SDS011;10774;42.178;26.578;2022-08-14T02:21:29;13.73;;;10.75;;
21233;SDS011;10774;42.178;26.578;2022-08-14T02:23:58;12.02;;;10.73;;
21233;SDS011;10774;42.178;26.578;2022-08-14T02:26:29;12.20;;;10.05;;
21233;SDS011;10774;42.178;26.578;2022-08-14T02:28:57;13.48;;;10.77;;
21233;SDS011;10774;42.178;26.578;2022-08-14T02:31:28;11.55;;;10.32;;
21233;SDS011;10774;42.178;26.578;2022-08-14T02:33:57;13.38;;;10.30;;
21233;SDS011;10774;42.178;26.578;2022-08-14T02:36:24;14.05;;;10.82;;
21233;SDS011;10774;42.178;26.578;2022-08-14T02:38:49;14.55;;;11.52;;
21233;SDS011;10774;42.178;26.578;2022-08-14T02:41:15;14.43;;;10.65;;
21233;SDS011;10774;42.178;26.578;2022-08-14T02:43:40;13.73;;;11.13;;
21233;SDS011;10774;42.178;26.578;2022-08-14T02:46:06;14.85;;;10.63;;
21233;SDS011;10774;42.178;26.578;2022-08-14T02:48:38;13.65;;;10.73;;
21233;SDS011;10774;42.178;26.578;2022-08-14T02:51:06;15.68;;;11.40;;
21233;SDS011;10774;42.178;26.578;2022-08-14T02:53:39;11.65;;;10.50;;
21233;SDS011;10774;42.178;26.578;2022-08-14T02:56:11;18.00;;;10.88;;
21233;SDS011;10774;42.178;26.578;2022-08-14T02:58:42;11.93;;;10.73;;
21233;SDS011;10774;42.178;26.578;2022-08-14T03:01:11;12.68;;;11.20;;
21233;SDS011;10774;42.178;26.578;2022-08-14T03:03:37;14.25;;;11.43;;
21233;SDS011;10774;42.178;26.578;2022-08-14T03:06:04;13.05;;;11.02;;
21233;SDS011;10774;42.178;26.578;2022-08-14T03:08:31;12.10;;;10.90;;
21233;SDS011;10774;42.178;26.578;2022-08-14T03:11:00;16.00;;;11.75;;
21233;SDS011;10774;42.178;26.578;2022-08-14T03:13:30;17.77;;;11.70;;
21233;SDS011;10774;42.178;26.578;2022-08-14T03:15:58;15.25;;;11.82;;
21233;SDS011;10774;42.178;26.578;2022-08-14T03:18:25;11.35;;;9.27;;
21233;SDS011;10774;42.178;26.578;2022-08-14T03:20:51;12.95;;;10.00;;
21233;SDS011;10774;42.178;26.578;2022-08-14T03:23:18;14.60;;;9.80;;
21233;SDS011;10774;42.178;26.578;2022-08-14T03:25:44;12.13;;;9.60;;
21233;SDS011;10774;42.178;26.578;2022-08-14T03:28:11;14.63;;;9.77;;
21233;SDS011;10774;42.178;26.578;2022-08-14T03:30:37;11.82;;;9.75;;
21233;SDS011;10774;42.178;26.578;2022-08-14T03:33:03;17.58;;;11.70;;
21233;SDS011;10774;42.178;26.578;2022-08-14T03:35:29;13.98;;;11.07;;
21233;SDS011;10774;42.178;26.578;2022-08-14T03:38:03;14.25;;;10.90;;
21233;SDS011;10774;42.178;26.578;2022-08-14T03:40:29;14.82;;;10.82;;
21233;SDS011;10774;42.178;26.578;2022-08-14T03:42:55;13.43;;;10.63;;
21233;SDS011;10774;42.178;26.578;2022-08-14T03:45:20;13.73;;;11.10;;
21233;SDS011;10774;42.178;26.578;2022-08-14T03:47:49;12.77;;;11.23;;
21233;SDS011;10774;42.178;26.578;2022-08-14T03:50:14;14.93;;;11.80;;
21233;SDS011;10774;42.178;26.578;2022-08-14T03:52:40;13.73;;;11.57;;
21233;SDS011;10774;42.178;26.578;2022-08-14T03:55:09;11.68;;;10.48;;
21233;SDS011;10774;42.178;26.578;2022-08-14T03:57:37;14.20;;;11.02;;
21233;SDS011;10774;42.178;26.578;2022-08-14T04:00:05;17.85;;;11.18;;
21233;SDS011;10774;42.178;26.578;2022-08-14T04:02:35;13.60;;;11.35;;
21233;SDS011;10774;42.178;26.578;2022-08-14T04:05:01;14.15;;;12.13;;
21233;SDS011;10774;42.178;26.578;2022-08-14T04:07:27;14.48;;;11.63;;
21233;SDS011;10774;42.178;26.578;2022-08-14T04:09:53;14.35;;;12.32;;
21233;SDS011;10774;42.178;26.578;2022-08-14T04:12:18;13.82;;;11.55;;
21233;SDS011;10774;42.178;26.578;2022-08-14T04:14:44;13.20;;;11.30;;
21233;SDS011;10774;42.178;26.578;2022-08-14T04:17:10;14.77;;;11.60;;
21233;SDS011;10774;42.178;26.578;2022-08-14T04:19:36;13.10;;;11.52;;
21233;SDS011;10774;42.178;26.578;2022-08-14T04:22:02;16.02;;;12.73;;
21233;SDS011;10774;42.178;26.578;2022-08-14T04:24:28;28.08;;;13.18;;
21233;SDS011;10774;42.178;26.578;2022-08-14T04:26:53;22.15;;;14.60;;
21233;SDS011;10774;42.178;26.578;2022-08-14T04:29:19;17.13;;;13.80;;
21233;SDS011;10774;42.178;26.578;2022-08-14T04:31:44;18.92;;;14.23;;
21233;SDS011;10774;42.178;26.578;2022-08-14T04:34:11;19.15;;;13.63;;
21233;SDS011;10774;42.178;26.578;2022-08-14T04:36:36;18.65;;;13.50;;
21233;SDS011;10774;42.178;26.578;2022-08-14T04:39:22;18.35;;;13.45;;
21233;SDS011;10774;42.178;26.578;2022-08-14T04:42:06;19.75;;;12.32;;
21233;SDS011;10774;42.178;26.578;2022-08-14T04:44:49;15.10;;;12.02;;
21233;SDS011;10774;42.178;26.578;2022-08-14T04:47:16;18.85;;;14.00;;
21233;SDS011;10774;42.178;26.578;2022-08-14T04:50:01;15.75;;;13.35;;
21233;SDS011;10774;42.178;26.578;2022-08-14T04:52:28;14.82;;;13.00;;
21233;SDS011;10774;42.178;26.578;2022-08-14T04:54:53;17.13;;;14.82;;
21233;SDS011;10774;42.178;26.578;2022-08-14T04:57:19;20.48;;;13.25;;
21233;SDS011;10774;42.178;26.578;2022-08-14T04:59:44;20.42;;;12.07;;
21233;SDS011;10774;42.178;26.578;2022-08-14T05:02:10;21.85;;;12.93;;
21233;SDS011;10774;42.178;26.578;2022-08-14T05:04:35;18.42;;;13.00;;
21233;SDS011;10774;42.178;26.578;2022-08-14T05:07:00;18.75;;;14.60;;
21233;SDS011;10774;42.178;26.578;2022-08-14T05:09:26;17.98;;;12.60;;
21233;SDS011;10774;42.178;26.578;2022-08-14T05:11:51;18.77;;;12.45;;
21233;SDS011;10774;42.178;26.578;2022-08-14T05:14:17;17.50;;;12.10;;
21233;SDS011;10774;42.178;26.578;2022-08-14T05:16:46;14.70;;;11.90;;
21233;SDS011;10774;42.178;26.578;2022-08-14T05:19:12;17.70;;;13.02;;
21233;SDS011;10774;42.178;26.578;2022-08-14T05:21:39;15.48;;;12.30;;
21233;SDS011;10774;42.178;26.578;2022-08-14T05:24:06;18.17;;;12.65;;
21233;SDS011;10774;42.178;26.578;2022-08-14T05:26:32;13.77;;;11.52;;
21233;SDS011;10774;42.178;26.578;2022-08-14T05:28:58;19.92;;;13.05;;
21233;SDS011;10774;42.178;26.578;2022-08-14T05:31:23;17.50;;;11.10;;
21233;SDS011;10774;42.178;26.578;2022-08-14T05:33:48;15.20;;;11.23;;
21233;SDS011;10774;42.178;26.578;2022-08-14T05:36:14;14.52;;;11.38;;
21233;SDS011;10774;42.178;26.578;2022-08-14T05:38:41;12.88;;;11.27;;
21233;SDS011;10774;42.178;26.578;2022-08-14T05:41:15;13.48;;;11.30;;
21233;SDS011;10774;42.178;26.578;2022-08-14T05:43:43;14.32;;;11.20;;
21233;SDS011;10774;42.178;26.578;2022-08-14T05:46:10;13.98;;;11.35;;
21233;SDS011;10774;42.178;26.578;2022-08-14T05:48:37;13.07;;;11.30;;
21233;SDS011;10774;42.178;26.578;2022-08-14T05:51:02;14.18;;;12.02;;
21233;SDS011;10774;42.178;26.578;2022-08-14T05:53:28;14.90;;;11.35;;
21233;SDS011;10774;42.178;26.578;2022-08-14T05:55:54;15.48;;;11.77;;
21233;SDS011;10774;42.178;26.578;2022-08-14T05:58:20;12.85;;;11.52;;
21233;SDS011;10774;42.178;26.578;2022-08-14T06:00:47;20.38;;;12.10;;
21233;SDS011;10774;42.178;26.578;2022-08-14T06:03:17;17.25;;;11.95;;
21233;SDS011;10774;42.178;26.578;2022-08-14T06:05:46;13.30;;;11.85;;
21233;SDS011;10774;42.178;26.578;2022-08-14T06:08:16;15.32;;;12.00;;
21233;SDS011;10774;42.178;26.578;2022-08-14T06:10:48;17.37;;;13.13;;
21233;SDS011;10774;42.178;26.578;2022-08-14T06:13:15;16.38;;;12.20;;
21233;SDS011;10774;42.178;26.578;2022-08-14T06:15:41;13.90;;;11.70;;
21233;SDS011;10774;42.178;26.578;2022-08-14T06:18:06;16.90;;;11.48;;
21233;SDS011;10774;42.178;26.578;2022-08-14T06:20:32;14.82;;;12.70;;
21233;SDS011;10774;42.178;26.578;2022-08-14T06:22:58;16.42;;;11.68;;
21233;SDS011;10774;42.178;26.578;2022-08-14T06:25:23;13.43;;;12.05;;
21233;SDS011;10774;42.178;26.578;2022-08-14T06:27:49;14.43;;;11.32;;
21233;SDS011;10774;42.178;26.578;2022-08-14T06:30:17;14.27;;;10.98;;
21233;SDS011;10774;42.178;26.578;2022-08-14T06:32:44;15.35;;;11.73;;
21233;SDS011;10774;42.178;26.578;2022-08-14T06:35:11;13.10;;;10.43;;
21233;SDS011;10774;42.178;26.578;2022-08-14T06:40:23;11.60;;;10.27;;
21233;SDS011;10774;42.178;26.578;2022-08-14T06:43:02;11.85;;;9.35;;
21233;SDS011;10774;42.178;26.578;2022-08-14T06:45:31;11.23;;;9.20;;
21233;SDS011;10774;42.178;26.578;2022-08-14T06:47:58;10.98;;;9.77;;
21233;SDS011;10774;42.178;26.578;2022-08-14T06:50:25;13.93;;;10.05;;
21233;SDS011;10774;42.178;26.578;2022-08-14T06:52:52;19.40;;;10.27;;
21233;SDS011;10774;42.178;26.578;2022-08-14T06:55:18;11.63;;;10.02;;
21233;SDS011;10774;42.178;26.578;2022-08-14T06:57:45;13.57;;;9.93;;
21233;SDS011;10774;42.178;26.578;2022-08-14T07:02:42;16.95;;;9.32;;
21233;SDS011;10774;42.178;26.578;2022-08-14T07:05:26;9.55;;;8.52;;
21233;SDS011;10774;42.178;26.578;2022-08-14T07:10:53;10.55;;;8.18;;
21233;SDS011;10774;42.178;26.578;2022-08-14T07:13:22;11.85;;;8.77;;
21233;SDS011;10774;42.178;26.578;2022-08-14T07:15:49;9.88;;;8.68;;
21233;SDS011;10774;42.178;26.578;2022-08-14T07:18:19;11.30;;;9.27;;
21233;SDS011;10774;42.178;26.578;2022-08-14T07:20:49;13.32;;;9.05;;
21233;SDS011;10774;42.178;26.578;2022-08-14T07:23:17;12.25;;;8.75;;
21233;SDS011;10774;42.178;26.578;2022-08-14T07:25:43;11.38;;;8.68;;
21233;SDS011;10774;42.178;26.578;2022-08-14T07:28:14;11.00;;;8.35;;
21233;SDS011;10774;42.178;26.578;2022-08-14T07:30:41;14.45;;;8.57;;
21233;SDS011;10774;42.178;26.578;2022-08-14T07:33:07;11.57;;;8.60;;
21233;SDS011;10774;42.178;26.578;2022-08-14T07:35:33;10.65;;;9.02;;
21233;SDS011;10774;42.178;26.578;2022-08-14T07:38:00;16.23;;;9.85;;
21233;SDS011;10774;42.178;26.578;2022-08-14T07:40:25;11.60;;;9.43;;
21233;SDS011;10774;42.178;26.578;2022-08-14T07:42:51;11.77;;;9.18;;
21233;SDS011;10774;42.178;26.578;2022-08-14T07:45:17;14.10;;;9.20;;
21233;SDS011;10774;42.178;26.578;2022-08-14T07:47:42;12.32;;;9.57;;
21233;SDS011;10774;42.178;26.578;2022-08-14T07:50:12;11.82;;;8.82;;
21233;SDS011;10774;42.178;26.578;2022-08-14T07:52:39;14.23;;;8.55;;
21233;SDS011;10774;42.178;26.578;2022-08-14T07:55:07;12.88;;;9.50;;
21233;SDS011;10774;42.178;26.578;2022-08-14T07:57:33;12.43;;;8.48;;
21233;SDS011;10774;42.178;26.578;2022-08-14T07:59:58;10.45;;;8.43;;
21233;SDS011;10774;42.178;26.578;2022-08-14T08:02:25;12.13;;;8.35;;
21233;SDS011;10774;42.178;26.578;2022-08-14T08:04:54;14.18;;;10.32;;
21233;SDS011;10774;42.178;26.578;2022-08-14T08:07:23;12.77;;;9.30;;
21233;SDS011;10774;42.178;26.578;2022-08-14T08:09:53;13.23;;;8.68;;
21233;SDS011;10774;42.178;26.578;2022-08-14T08:12:21;11.07;;;8.98;;
21233;SDS011;10774;42.178;26.578;2022-08-14T08:14:49;14.25;;;9.02;;
21233;SDS011;10774;42.178;26.578;2022-08-14T08:17:16;10.82;;;8.95;;
21233;SDS011;10774;42.178;26.578;2022-08-14T08:19:44;13.63;;;9.50;;
21233;SDS011;10774;42.178;26.578;2022-08-14T08:22:12;11.25;;;9.20;;
21233;SDS011;10774;42.178;26.578;2022-08-14T08:24:37;11.82;;;8.63;;
21233;SDS011;10774;42.178;26.578;2022-08-14T08:27:13;9.77;;;8.77;;
21233;SDS011;10774;42.178;26.578;2022-08-14T08:29:42;11.23;;;9.00;;
21233;SDS011;10774;42.178;26.578;2022-08-14T08:32:07;11.18;;;8.70;;
21233;SDS011;10774;42.178;26.578;2022-08-14T08:34:43;15.43;;;9.18;;
21233;SDS011;10774;42.178;26.578;2022-08-14T08:37:10;12.65;;;9.02;;
21233;SDS011;10774;42.178;26.578;2022-08-14T08:39:45;15.00;;;8.32;;
21233;SDS011;10774;42.178;26.578;2022-08-14T08:42:12;11.90;;;8.88;;
21233;SDS011;10774;42.178;26.578;2022-08-14T08:44:53;11.55;;;8.57;;
21233;SDS011;10774;42.178;26.578;2022-08-14T08:47:18;9.63;;;8.57;;
21233;SDS011;10774;42.178;26.578;2022-08-14T08:49:44;12.98;;;8.85;;
21233;SDS011;10774;42.178;26.578;2022-08-14T08:52:09;15.52;;;8.60;;
21233;SDS011;10774;42.178;26.578;2022-08-14T08:54:35;10.95;;;8.65;;
21233;SDS011;10774;42.178;26.578;2022-08-14T08:57:01;14.02;;;9.13;;
21233;SDS011;10774;42.178;26.578;2022-08-14T08:59:35;12.32;;;9.38;;
21233;SDS011;10774;42.178;26.578;2022-08-14T09:04:42;14.05;;;8.85;;
21233;SDS011;10774;42.178;26.578;2022-08-14T09:07:08;10.93;;;8.35;;
21233;SDS011;10774;42.178;26.578;2022-08-14T09:09:35;11.57;;;8.85;;
21233;SDS011;10774;42.178;26.578;2022-08-14T09:12:15;10.00;;;8.77;;
21233;SDS011;10774;42.178;26.578;2022-08-14T09:14:42;11.30;;;8.65;;
21233;SDS011;10774;42.178;26.578;2022-08-14T09:17:07;12.50;;;8.63;;
21233;SDS011;10774;42.178;26.578;2022-08-14T09:19:35;12.60;;;8.55;;
21233;SDS011;10774;42.178;26.578;2022-08-14T09:22:01;14.10;;;9.63;;
21233;SDS011;10774;42.178;26.578;2022-08-14T09:24:28;11.18;;;8.65;;
21233;SDS011;10774;42.178;26.578;2022-08-14T09:26:54;14.75;;;8.73;;
21233;SDS011;10774;42.178;26.578;2022-08-14T09:29:20;13.60;;;9.32;;
21233;SDS011;10774;42.178;26.578;2022-08-14T09:31:47;12.60;;;9.15;;
21233;SDS011;10774;42.178;26.578;2022-08-14T09:42:29;13.50;;;8.73;;
21233;SDS011;10774;42.178;26.578;2022-08-14T09:45:20;14.25;;;8.23;;
21233;SDS011;10774;42.178;26.578;2022-08-14T09:47:56;9.30;;;7.90;;
21233;SDS011;10774;42.178;26.578;2022-08-14T09:50:25;10.93;;;8.02;;
21233;SDS011;10774;42.178;26.578;2022-08-14T09:53:00;9.27;;;8.18;;
21233;SDS011;10774;42.178;26.578;2022-08-14T09:55:30;11.95;;;8.10;;
21233;SDS011;10774;42.178;26.578;2022-08-14T09:58:17;14.70;;;8.68;;
21233;SDS011;10774;42.178;26.578;2022-08-14T10:03:27;9.77;;;7.03;;
21233;SDS011;10774;42.178;26.578;2022-08-14T10:06:13;12.30;;;7.88;;
21233;SDS011;10774;42.178;26.578;2022-08-14T10:11:17;11.80;;;8.43;;
21233;SDS011;10774;42.178;26.578;2022-08-14T10:13:46;11.13;;;7.75;;
21233;SDS011;10774;42.178;26.578;2022-08-14T10:16:16;11.10;;;7.78;;
21233;SDS011;10774;42.178;26.578;2022-08-14T10:18:42;8.73;;;7.85;;
21233;SDS011;10774;42.178;26.578;2022-08-14T10:21:08;10.60;;;7.57;;
21233;SDS011;10774;42.178;26.578;2022-08-14T10:23:45;9.45;;;7.57;;
21233;SDS011;10774;42.178;26.578;2022-08-14T10:26:17;9.75;;;7.65;;
21233;SDS011;10774;42.178;26.578;2022-08-14T10:28:46;12.32;;;8.15;;
21233;SDS011;10774;42.178;26.578;2022-08-14T10:31:23;12.25;;;7.15;;
21233;SDS011;10774;42.178;26.578;2022-08-14T10:33:57;8.13;;;7.25;;
21233;SDS011;10774;42.178;26.578;2022-08-14T10:36:28;11.20;;;7.30;;
21233;SDS011;10774;42.178;26.578;2022-08-14T10:38:57;11.18;;;7.10;;
21233;SDS011;10774;42.178;26.578;2022-08-14T10:41:32;9.82;;;7.10;;
21233;SDS011;10774;42.178;26.578;2022-08-14T10:46:45;10.73;;;6.80;;
21233;SDS011;10774;42.178;26.578;2022-08-14T10:49:25;13.38;;;7.57;;
21233;SDS011;10774;42.178;26.578;2022-08-14T11:00:11;11.45;;;7.22;;
21233;SDS011;10774;42.178;26.578;2022-08-14T11:02:39;9.98;;;7.03;;
21233;SDS011;10774;42.178;26.578;2022-08-14T11:05:07;10.75;;;7.35;;
21233;SDS011;10774;42.178;26.578;2022-08-14T11:07:41;11.82;;;7.93;;
21233;SDS011;10774;42.178;26.578;2022-08-14T11:10:18;23.05;;;9.70;;
21233;SDS011;10774;42.178;26.578;2022-08-14T11:12:49;10.52;;;7.22;;
21233;SDS011;10774;42.178;26.578;2022-08-14T11:15:20;9.00;;;6.47;;
21233;SDS011;10774;42.178;26.578;2022-08-14T11:17:47;7.28;;;6.53;;
21233;SDS011;10774;42.178;26.578;2022-08-14T11:20:15;7.93;;;6.90;;
21233;SDS011;10774;42.178;26.578;2022-08-14T11:22:43;11.75;;;7.57;;
21233;SDS011;10774;42.178;26.578;2022-08-14T11:25:11;9.48;;;7.00;;
21233;SDS011;10774;42.178;26.578;2022-08-14T11:27:39;9.05;;;6.93;;
21233;SDS011;10774;42.178;26.578;2022-08-14T11:30:08;10.48;;;6.97;;
21233;SDS011;10774;42.178;26.578;2022-08-14T11:32:35;9.57;;;7.18;;
21233;SDS011;10774;42.178;26.578;2022-08-14T11:35:03;8.48;;;6.65;;
21233;SDS011;10774;42.178;26.578;2022-08-14T11:37:29;10.20;;;7.32;;
21233;SDS011;10774;42.178;26.578;2022-08-14T11:39:58;9.55;;;6.28;;
21233;SDS011;10774;42.178;26.578;2022-08-14T11:42:27;8.18;;;6.55;;
21233;SDS011;10774;42.178;26.578;2022-08-14T11:44:57;6.80;;;6.07;;
21233;SDS011;10774;42.178;26.578;2022-08-14T11:47:27;10.85;;;7.22;;
21233;SDS011;10774;42.178;26.578;2022-08-14T11:49:56;14.63;;;7.45;;
21233;SDS011;10774;42.178;26.578;2022-08-14T11:52:22;8.85;;;6.97;;
21233;SDS011;10774;42.178;26.578;2022-08-14T11:54:58;9.68;;;7.25;;
21233;SDS011;10774;42.178;26.578;2022-08-14T11:57:24;12.98;;;8.00;;
21233;SDS011;10774;42.178;26.578;2022-08-14T11:59:59;16.42;;;8.75;;
21233;SDS011;10774;42.178;26.578;2022-08-14T12:02:25;11.75;;;7.95;;
21233;SDS011;10774;42.178;26.578;2022-08-14T12:04:51;18.92;;;8.77;;
21233;SDS011;10774;42.178;26.578;2022-08-14T12:07:17;18.30;;;8.40;;
21233;SDS011;10774;42.178;26.578;2022-08-14T12:09:44;16.02;;;9.05;;
21233;SDS011;10774;42.178;26.578;2022-08-14T12:14:53;13.20;;;9.07;;
21233;SDS011;10774;42.178;26.578;2022-08-14T12:17:30;13.70;;;9.68;;
21233;SDS011;10774;42.178;26.578;2022-08-14T12:20:08;15.98;;;10.18;;
21233;SDS011;10774;42.178;26.578;2022-08-14T12:22:34;17.10;;;10.63;;
21233;SDS011;10774;42.178;26.578;2022-08-14T12:25:01;20.55;;;14.20;;
21233;SDS011;10774;42.178;26.578;2022-08-14T12:27:41;15.73;;;10.48;;
21233;SDS011;10774;42.178;26.578;2022-08-14T12:30:07;13.70;;;10.68;;
21233;SDS011;10774;42.178;26.578;2022-08-14T12:35:11;16.85;;;10.70;;
21233;SDS011;10774;42.178;26.578;2022-08-14T12:37:37;16.50;;;10.90;;
21233;SDS011;10774;42.178;26.578;2022-08-14T12:40:12;21.23;;;11.18;;
21233;SDS011;10774;42.178;26.578;2022-08-14T12:42:39;16.02;;;9.80;;
21233;SDS011;10774;42.178;26.578;2022-08-14T12:45:05;18.08;;;9.52;;
21233;SDS011;10774;42.178;26.578;2022-08-14T12:47:32;24.65;;;12.43;;
21233;SDS011;10774;42.178;26.578;2022-08-14T12:49:57;23.40;;;13.13;;
21233;SDS011;10774;42.178;26.578;2022-08-14T12:52:27;23.35;;;13.27;;
21233;SDS011;10774;42.178;26.578;2022-08-14T12:55:10;23.05;;;12.55;;
21233;SDS011;10774;42.178;26.578;2022-08-14T12:57:44;21.13;;;12.80;;
21233;SDS011;10774;42.178;26.578;2022-08-14T13:02:42;11.93;;;8.15;;
21233;SDS011;10774;42.178;26.578;2022-08-14T13:05:09;15.60;;;7.80;;
21233;SDS011;10774;42.178;26.578;2022-08-14T13:07:37;12.93;;;8.32;;
21233;SDS011;10774;42.178;26.578;2022-08-14T13:10:04;11.93;;;9.02;;
21233;SDS011;10774;42.178;26.578;2022-08-14T13:12:39;9.73;;;8.18;;
21233;SDS011;10774;42.178;26.578;2022-08-14T13:15:06;13.43;;;9.15;;
21233;SDS011;10774;42.178;26.578;2022-08-14T13:20:28;8.93;;;6.55;;
21233;SDS011;10774;42.178;26.578;2022-08-14T13:22:55;5.63;;;5.03;;
21233;SDS011;10774;42.178;26.578;2022-08-14T13:25:22;10.05;;;5.55;;
21233;SDS011;10774;42.178;26.578;2022-08-14T13:27:50;9.73;;;5.93;;
21233;SDS011;10774;42.178;26.578;2022-08-14T13:30:19;8.90;;;5.97;;
21233;SDS011;10774;42.178;26.578;2022-08-14T13:32:45;7.88;;;6.20;;
21233;SDS011;10774;42.178;26.578;2022-08-14T13:35:11;10.00;;;6.70;;
21233;SDS011;10774;42.178;26.578;2022-08-14T13:37:40;8.85;;;7.00;;
21233;SDS011;10774;42.178;26.578;2022-08-14T13:40:07;8.90;;;6.75;;
21233;SDS011;10774;42.178;26.578;2022-08-14T13:42:33;8.13;;;5.55;;
21233;SDS011;10774;42.178;26.578;2022-08-14T13:45:01;8.23;;;5.63;;
21233;SDS011;10774;42.178;26.578;2022-08-14T13:47:28;6.07;;;5.47;;
21233;SDS011;10774;42.178;26.578;2022-08-14T13:49:57;5.22;;;4.68;;
21233;SDS011;10774;42.178;26.578;2022-08-14T13:52:31;6.75;;;6.07;;
21233;SDS011;10774;42.178;26.578;2022-08-14T13:55:00;7.80;;;6.97;;
21233;SDS011;10774;42.178;26.578;2022-08-14T13:57:28;7.85;;;6.00;;
21233;SDS011;10774;42.178;26.578;2022-08-14T13:59:56;7.10;;;5.28;;
21233;SDS011;10774;42.178;26.578;2022-08-14T14:02:30;8.38;;;5.43;;
21233;SDS011;10774;42.178;26.578;2022-08-14T14:04:59;5.82;;;5.22;;
21233;SDS011;10774;42.178;26.578;2022-08-14T14:07:28;6.10;;;5.03;;
21233;SDS011;10774;42.178;26.578;2022-08-14T14:09:56;7.30;;;5.53;;
21233;SDS011;10774;42.178;26.578;2022-08-14T14:12:25;8.50;;;5.15;;
21233;SDS011;10774;42.178;26.578;2022-08-14T14:14:51;5.22;;;4.45;;
21233;SDS011;10774;42.178;26.578;2022-08-14T14:17:17;9.05;;;5.22;;
21233;SDS011;10774;42.178;26.578;2022-08-14T14:19:48;6.70;;;5.38;;
21233;SDS011;10774;42.178;26.578;2022-08-14T14:22:14;8.45;;;5.93;;
21233;SDS011;10774;42.178;26.578;2022-08-14T14:24:40;8.93;;;5.65;;
21233;SDS011;10774;42.178;26.578;2022-08-14T14:27:07;7.47;;;6.18;;
21233;SDS011;10774;42.178;26.578;2022-08-14T14:29:33;8.25;;;7.40;;
21233;SDS011;10774;42.178;26.578;2022-08-14T14:32:00;7.65;;;6.72;;
21233;SDS011;10774;42.178;26.578;2022-08-14T14:34:27;7.10;;;6.40;;
21233;SDS011;10774;42.178;26.578;2022-08-14T14:36:55;8.35;;;6.28;;
21233;SDS011;10774;42.178;26.578;2022-08-14T14:39:28;7.57;;;6.03;;
21233;SDS011;10774;42.178;26.578;2022-08-14T14:41:55;10.18;;;6.30;;
21233;SDS011;10774;42.178;26.578;2022-08-14T14:44:27;8.85;;;5.95;;
21233;SDS011;10774;42.178;26.578;2022-08-14T14:46:57;7.15;;;5.88;;
21233;SDS011;10774;42.178;26.578;2022-08-14T14:49:24;13.07;;;8.20;;
21233;SDS011;10774;42.178;26.578;2022-08-14T14:51:50;11.80;;;9.57;;
21233;SDS011;10774;42.178;26.578;2022-08-14T14:54:17;10.88;;;7.70;;
21233;SDS011;10774;42.178;26.578;2022-08-14T14:56:44;10.65;;;8.40;;
21233;SDS011;10774;42.178;26.578;2022-08-14T14:59:11;10.65;;;9.05;;
21233;SDS011;10774;42.178;26.578;2022-08-14T15:01:38;12.75;;;6.05;;
21233;SDS011;10774;42.178;26.578;2022-08-14T15:04:04;10.05;;;7.82;;
21233;SDS011;10774;42.178;26.578;2022-08-14T15:06:32;9.50;;;6.40;;
21233;SDS011;10774;42.178;26.578;2022-08-14T15:08:58;8.60;;;5.38;;
21233;SDS011;10774;42.178;26.578;2022-08-14T15:11:24;8.52;;;5.43;;
21233;SDS011;10774;42.178;26.578;2022-08-14T15:13:50;6.07;;;5.03;;